BEE123 EGHQ-EGJJ
Flight info
| Callsign | BEE123 |
|---|---|
| Flight time | 0h 34m |
| Altitude | 19000 |
| Route | DCT BHD DCT SKERY SKERY1K |
| Aircraft | DH8D/L-V/N |
Departure
| Time | 2026-05-09 19:23 |
|---|---|
| Airport | Cornwall Airport Newquay (EGHQ) |
Arrival
| Time | 2026-05-09 19:57 |
|---|---|
| Airport | Jersey Airport (EGJJ) |
| Time | Latitude | Longitude | Altitude | Speed | Heading |
|---|---|---|---|---|---|
| 2026-05-09 19:01 | 50.44680 | -5.00467 | 399 ft | 0 kts | 76° |
| 2026-05-09 19:11 | 50.44679 | -5.00474 | 399 ft | 2 kts | 76° |
| 2026-05-09 19:12 | 50.44676 | -5.00496 | 399 ft | 2 kts | 76° |
| 2026-05-09 19:12 | 50.44672 | -5.00520 | 399 ft | 2 kts | 76° |
| 2026-05-09 19:12 | 50.44669 | -5.00543 | 399 ft | 2 kts | 78° |
| 2026-05-09 19:12 | 50.44669 | -5.00566 | 399 ft | 2 kts | 106° |
| 2026-05-09 19:13 | 50.44673 | -5.00583 | 399 ft | 1 kts | 122° |
| 2026-05-09 19:13 | 50.44674 | -5.00583 | 399 ft | 0 kts | 122° |
| 2026-05-09 19:18 | 50.44672 | -5.00579 | 399 ft | 3 kts | 122° |
| 2026-05-09 19:18 | 50.44637 | -5.00487 | 399 ft | 16 kts | 120° |
| 2026-05-09 19:18 | 50.44566 | -5.00295 | 399 ft | 20 kts | 120° |
| 2026-05-09 19:18 | 50.44505 | -5.00132 | 399 ft | 15 kts | 120° |
| 2026-05-09 19:19 | 50.44432 | -4.99937 | 399 ft | 25 kts | 121° |
| 2026-05-09 19:19 | 50.44339 | -4.99693 | 399 ft | 23 kts | 120° |
| 2026-05-09 19:19 | 50.44267 | -4.99501 | 399 ft | 19 kts | 120° |
| 2026-05-09 19:19 | 50.44180 | -4.99272 | 399 ft | 28 kts | 120° |
| 2026-05-09 19:20 | 50.44074 | -4.98988 | 399 ft | 27 kts | 120° |
| 2026-05-09 19:20 | 50.43982 | -4.98747 | 399 ft | 28 kts | 121° |
| 2026-05-09 19:20 | 50.43869 | -4.98448 | 399 ft | 31 kts | 120° |
| 2026-05-09 19:20 | 50.43781 | -4.98213 | 399 ft | 19 kts | 120° |
| 2026-05-09 19:21 | 50.43702 | -4.98004 | 399 ft | 24 kts | 122° |
| 2026-05-09 19:21 | 50.43606 | -4.97868 | 399 ft | 11 kts | 160° |
| 2026-05-09 19:21 | 50.43553 | -4.97852 | 399 ft | 4 kts | 176° |
| 2026-05-09 19:21 | 50.43494 | -4.97869 | 399 ft | 12 kts | 199° |
| 2026-05-09 19:22 | 50.43470 | -4.97923 | 399 ft | 2 kts | 297° |
| 2026-05-09 19:22 | 50.43471 | -4.97928 | 399 ft | 0 kts | 298° |
| 2026-05-09 19:22 | 50.43486 | -4.97969 | 399 ft | 14 kts | 300° |
| 2026-05-09 19:22 | 50.43690 | -4.98506 | 400 ft | 100 kts | 300° |
| 2026-05-09 19:23 | 50.44144 | -4.99726 | 473 ft | 149 kts | 305° |
| 2026-05-09 19:23 | 50.44682 | -5.01184 | 948 ft | 161 kts | 304° |
| 2026-05-09 19:23 | 50.45264 | -5.02707 | 1602 ft | 165 kts | 307° |
| 2026-05-09 19:23 | 50.45866 | -5.04179 | 2332 ft | 161 kts | 315° |
| 2026-05-09 19:24 | 50.46801 | -5.05018 | 2877 ft | 158 kts | 342° |
| 2026-05-09 19:24 | 50.47828 | -5.05595 | 3476 ft | 158 kts | 340° |
| 2026-05-09 19:24 | 50.48860 | -5.06156 | 4063 ft | 159 kts | 343° |
| 2026-05-09 19:24 | 50.49949 | -5.06013 | 4571 ft | 168 kts | 22° |
| 2026-05-09 19:25 | 50.50929 | -5.04992 | 5104 ft | 173 kts | 28° |
| 2026-05-09 19:25 | 50.51932 | -5.03929 | 5636 ft | 176 kts | 28° |
| 2026-05-09 19:25 | 50.52952 | -5.02822 | 6165 ft | 180 kts | 28° |
| 2026-05-09 19:25 | 50.53864 | -5.01451 | 6644 ft | 194 kts | 54° |
| 2026-05-09 19:26 | 50.54121 | -4.99314 | 7111 ft | 208 kts | 95° |
| 2026-05-09 19:26 | 50.53829 | -4.97088 | 7640 ft | 211 kts | 101° |
| 2026-05-09 19:26 | 50.53540 | -4.94807 | 8176 ft | 214 kts | 101° |
| 2026-05-09 19:26 | 50.53234 | -4.92520 | 8704 ft | 216 kts | 109° |
| 2026-05-09 19:27 | 50.52348 | -4.90733 | 9146 ft | 206 kts | 160° |
| 2026-05-09 19:27 | 50.51034 | -4.90364 | 9682 ft | 192 kts | 186° |
| 2026-05-09 19:27 | 50.49745 | -4.89750 | 10237 ft | 206 kts | 152° |
| 2026-05-09 19:27 | 50.48852 | -4.87924 | 10741 ft | 220 kts | 114° |
| 2026-05-09 19:28 | 50.48719 | -4.85545 | 11211 ft | 227 kts | 84° |
| 2026-05-09 19:28 | 50.48662 | -4.83063 | 11605 ft | 226 kts | 118° |
| 2026-05-09 19:28 | 50.47882 | -4.81041 | 12131 ft | 216 kts | 132° |
| 2026-05-09 19:28 | 50.47062 | -4.79042 | 12570 ft | 222 kts | 128° |
| 2026-05-09 19:29 | 50.46291 | -4.76943 | 13037 ft | 225 kts | 127° |
| 2026-05-09 19:29 | 50.45540 | -4.74753 | 13474 ft | 228 kts | 125° |
| 2026-05-09 19:29 | 50.44812 | -4.72510 | 13900 ft | 231 kts | 124° |
| 2026-05-09 19:29 | 50.44105 | -4.70238 | 14307 ft | 234 kts | 123° |
| 2026-05-09 19:30 | 50.43402 | -4.67911 | 14706 ft | 237 kts | 123° |
| 2026-05-09 19:30 | 50.42687 | -4.65516 | 14917 ft | 250 kts | 123° |
| 2026-05-09 19:30 | 50.41962 | -4.63028 | 15282 ft | 254 kts | 122° |
| 2026-05-09 19:30 | 50.41230 | -4.60483 | 15642 ft | 259 kts | 122° |
| 2026-05-09 19:31 | 50.40493 | -4.57902 | 15948 ft | 265 kts | 122° |
| 2026-05-09 19:31 | 50.39735 | -4.55229 | 16331 ft | 268 kts | 122° |
| 2026-05-09 19:31 | 50.38984 | -4.52570 | 16700 ft | 270 kts | 122° |
| 2026-05-09 19:31 | 50.38216 | -4.49844 | 17069 ft | 273 kts | 122° |
| 2026-05-09 19:32 | 50.37446 | -4.47111 | 17429 ft | 275 kts | 122° |
| 2026-05-09 19:32 | 50.36675 | -4.44371 | 17777 ft | 277 kts | 122° |
| 2026-05-09 19:32 | 50.35892 | -4.41593 | 18118 ft | 280 kts | 123° |
| 2026-05-09 19:32 | 50.35100 | -4.38781 | 18451 ft | 282 kts | 123° |
| 2026-05-09 19:33 | 50.34306 | -4.35968 | 18774 ft | 284 kts | 123° |
| 2026-05-09 19:33 | 50.33494 | -4.33099 | 18985 ft | 291 kts | 124° |
| 2026-05-09 19:33 | 50.32652 | -4.30145 | 19061 ft | 303 kts | 123° |
| 2026-05-09 19:33 | 50.31763 | -4.27030 | 19082 ft | 317 kts | 123° |
| 2026-05-09 19:34 | 50.30846 | -4.23811 | 19085 ft | 331 kts | 123° |
| 2026-05-09 19:34 | 50.29896 | -4.20477 | 19080 ft | 345 kts | 122° |
| 2026-05-09 19:34 | 50.28903 | -4.16989 | 19073 ft | 357 kts | 122° |
| 2026-05-09 19:34 | 50.27879 | -4.13392 | 19067 ft | 367 kts | 122° |
| 2026-05-09 19:35 | 50.26823 | -4.09681 | 19061 ft | 376 kts | 121° |
| 2026-05-09 19:35 | 50.25745 | -4.05890 | 19056 ft | 384 kts | 121° |
| 2026-05-09 19:35 | 50.24645 | -4.02030 | 19054 ft | 390 kts | 121° |
| 2026-05-09 19:35 | 50.23537 | -3.98150 | 19052 ft | 395 kts | 121° |
| 2026-05-09 19:36 | 50.22402 | -3.94179 | 19051 ft | 399 kts | 121° |
| 2026-05-09 19:36 | 50.21266 | -3.90213 | 19050 ft | 402 kts | 121° |
| 2026-05-09 19:36 | 50.20113 | -3.86199 | 19049 ft | 405 kts | 121° |
| 2026-05-09 19:36 | 50.18950 | -3.82154 | 19049 ft | 407 kts | 121° |
| 2026-05-09 19:37 | 50.17779 | -3.78087 | 19048 ft | 408 kts | 121° |
| 2026-05-09 19:37 | 50.16614 | -3.74052 | 19048 ft | 409 kts | 121° |
| 2026-05-09 19:37 | 50.15431 | -3.69961 | 19048 ft | 410 kts | 121° |
| 2026-05-09 19:37 | 50.14259 | -3.65920 | 19048 ft | 411 kts | 121° |
| 2026-05-09 19:38 | 50.13060 | -3.61790 | 19048 ft | 411 kts | 121° |
| 2026-05-09 19:38 | 50.11885 | -3.57749 | 19048 ft | 412 kts | 121° |
| 2026-05-09 19:38 | 50.10709 | -3.53708 | 19032 ft | 403 kts | 121° |
| 2026-05-09 19:38 | 50.09567 | -3.49767 | 19035 ft | 392 kts | 121° |
| 2026-05-09 19:39 | 50.08450 | -3.45926 | 19039 ft | 383 kts | 121° |
| 2026-05-09 19:39 | 50.07364 | -3.42200 | 19039 ft | 375 kts | 121° |
| 2026-05-09 19:39 | 50.06282 | -3.38506 | 19040 ft | 368 kts | 121° |
| 2026-05-09 19:39 | 50.05222 | -3.34892 | 19040 ft | 361 kts | 122° |
| 2026-05-09 19:40 | 50.04193 | -3.31393 | 18971 ft | 358 kts | 122° |
| 2026-05-09 19:40 | 50.03138 | -3.27835 | 18627 ft | 364 kts | 122° |
| 2026-05-09 19:40 | 50.02072 | -3.24248 | 18266 ft | 369 kts | 122° |
| 2026-05-09 19:40 | 50.00974 | -3.20548 | 17895 ft | 374 kts | 122° |
| 2026-05-09 19:41 | 49.99726 | -3.17003 | 17479 ft | 368 kts | 134° |
| 2026-05-09 19:41 | 49.97992 | -3.14187 | 17105 ft | 358 kts | 144° |
| 2026-05-09 19:41 | 49.96213 | -3.11567 | 16714 ft | 357 kts | 144° |
| 2026-05-09 19:41 | 49.94410 | -3.08924 | 16313 ft | 356 kts | 144° |
| 2026-05-09 19:42 | 49.92620 | -3.06304 | 15914 ft | 355 kts | 144° |
| 2026-05-09 19:42 | 49.90831 | -3.03684 | 15514 ft | 354 kts | 143° |
| 2026-05-09 19:42 | 49.89030 | -3.01044 | 15112 ft | 353 kts | 143° |
| 2026-05-09 19:42 | 49.87271 | -2.98468 | 14718 ft | 353 kts | 143° |
| 2026-05-09 19:43 | 49.85474 | -2.95834 | 14329 ft | 352 kts | 142° |
| 2026-05-09 19:43 | 49.83698 | -2.93233 | 13952 ft | 350 kts | 142° |
| 2026-05-09 19:43 | 49.81934 | -2.90651 | 13577 ft | 349 kts | 142° |
| 2026-05-09 19:43 | 49.80177 | -2.88080 | 13198 ft | 346 kts | 142° |
| 2026-05-09 19:44 | 49.78453 | -2.85558 | 12822 ft | 342 kts | 141° |
| 2026-05-09 19:44 | 49.76714 | -2.83016 | 12440 ft | 338 kts | 141° |
| 2026-05-09 19:44 | 49.75028 | -2.80557 | 12067 ft | 335 kts | 141° |
| 2026-05-09 19:44 | 49.73339 | -2.78093 | 11688 ft | 332 kts | 141° |
| 2026-05-09 19:45 | 49.71653 | -2.75638 | 11299 ft | 326 kts | 141° |
| 2026-05-09 19:45 | 49.70018 | -2.73256 | 10916 ft | 321 kts | 140° |
| 2026-05-09 19:45 | 49.68418 | -2.70932 | 10538 ft | 317 kts | 140° |
| 2026-05-09 19:45 | 49.66802 | -2.68611 | 10154 ft | 313 kts | 140° |
| 2026-05-09 19:46 | 49.65217 | -2.66356 | 9776 ft | 310 kts | 139° |
| 2026-05-09 19:46 | 49.63661 | -2.64095 | 9398 ft | 307 kts | 138° |
| 2026-05-09 19:46 | 49.62115 | -2.61841 | 9020 ft | 304 kts | 138° |
| 2026-05-09 19:46 | 49.60582 | -2.59613 | 8643 ft | 302 kts | 137° |
| 2026-05-09 19:47 | 49.59053 | -2.57395 | 8265 ft | 300 kts | 137° |
| 2026-05-09 19:47 | 49.57550 | -2.55218 | 7891 ft | 298 kts | 136° |
| 2026-05-09 19:47 | 49.56043 | -2.53042 | 7515 ft | 296 kts | 137° |
| 2026-05-09 19:47 | 49.54348 | -2.51304 | 7119 ft | 292 kts | 157° |
| 2026-05-09 19:48 | 49.52435 | -2.50269 | 6758 ft | 289 kts | 162° |
| 2026-05-09 19:48 | 49.50523 | -2.49313 | 6405 ft | 285 kts | 162° |
| 2026-05-09 19:48 | 49.48655 | -2.48407 | 6073 ft | 280 kts | 162° |
| 2026-05-09 19:48 | 49.46804 | -2.47530 | 5741 ft | 276 kts | 162° |
| 2026-05-09 19:49 | 49.44980 | -2.46686 | 5410 ft | 271 kts | 163° |
| 2026-05-09 19:49 | 49.43152 | -2.46302 | 5067 ft | 266 kts | 182° |
| 2026-05-09 19:49 | 49.41318 | -2.46519 | 4753 ft | 262 kts | 185° |
| 2026-05-09 19:49 | 49.39529 | -2.46756 | 4588 ft | 251 kts | 185° |
| 2026-05-09 19:50 | 49.37853 | -2.46992 | 4457 ft | 239 kts | 185° |
| 2026-05-09 19:50 | 49.36174 | -2.47241 | 4357 ft | 242 kts | 185° |
| 2026-05-09 19:50 | 49.34502 | -2.47519 | 4242 ft | 245 kts | 186° |
| 2026-05-09 19:50 | 49.32778 | -2.47947 | 4062 ft | 251 kts | 189° |
| 2026-05-09 19:51 | 49.31064 | -2.48408 | 3872 ft | 251 kts | 189° |
| 2026-05-09 19:51 | 49.29349 | -2.48861 | 3735 ft | 247 kts | 189° |
| 2026-05-09 19:51 | 49.27687 | -2.49302 | 3479 ft | 238 kts | 189° |
| 2026-05-09 19:51 | 49.26133 | -2.49957 | 3184 ft | 227 kts | 208° |
| 2026-05-09 19:52 | 49.24876 | -2.51280 | 2922 ft | 214 kts | 215° |
| 2026-05-09 19:52 | 49.23523 | -2.51978 | 2634 ft | 200 kts | 176° |
| 2026-05-09 19:52 | 49.22195 | -2.51471 | 2604 ft | 200 kts | 151° |
| 2026-05-09 19:52 | 49.21160 | -2.50082 | 2627 ft | 202 kts | 118° |
| 2026-05-09 19:53 | 49.20425 | -2.48183 | 2677 ft | 207 kts | 116° |
| 2026-05-09 19:53 | 49.19701 | -2.46342 | 2657 ft | 198 kts | 116° |
| 2026-05-09 19:53 | 49.19019 | -2.44601 | 2615 ft | 185 kts | 116° |
| 2026-05-09 19:53 | 49.18525 | -2.42884 | 2546 ft | 164 kts | 90° |
| 2026-05-09 19:54 | 49.18674 | -2.41246 | 2541 ft | 159 kts | 70° |
| 2026-05-09 19:54 | 49.18996 | -2.39567 | 2571 ft | 167 kts | 72° |
| 2026-05-09 19:54 | 49.19237 | -2.37802 | 2532 ft | 174 kts | 75° |
| 2026-05-09 19:54 | 49.19425 | -2.35919 | 2318 ft | 184 kts | 78° |
| 2026-05-09 19:55 | 49.19593 | -2.33920 | 2074 ft | 196 kts | 81° |
| 2026-05-09 19:55 | 49.19764 | -2.31823 | 1769 ft | 197 kts | 80° |
| 2026-05-09 19:55 | 49.19935 | -2.29786 | 1486 ft | 189 kts | 80° |
| 2026-05-09 19:56 | 49.20237 | -2.26170 | 1016 ft | 150 kts | 80° |
| 2026-05-09 19:56 | 49.20362 | -2.24671 | 777 ft | 138 kts | 82° |
| 2026-05-09 19:56 | 49.20488 | -2.23210 | 639 ft | 138 kts | 82° |
| 2026-05-09 19:56 | 49.20600 | -2.21737 | 443 ft | 138 kts | 79° |
| 2026-05-09 19:57 | 49.20729 | -2.20330 | 273 ft | 131 kts | 80° |
| 2026-05-09 19:57 | 49.20821 | -2.19255 | 276 ft | 66 kts | 83° |
| 2026-05-09 19:57 | 49.20864 | -2.18743 | 273 ft | 35 kts | 81° |
| 2026-05-09 19:57 | 49.20883 | -2.18461 | 274 ft | 19 kts | 96° |
| 2026-05-09 19:58 | 49.20819 | -2.18371 | 275 ft | 10 kts | 183° |
| 2026-05-09 19:58 | 49.20744 | -2.18443 | 273 ft | 15 kts | 231° |
| 2026-05-09 19:58 | 49.20720 | -2.18605 | 270 ft | 15 kts | 263° |
| 2026-05-09 19:58 | 49.20709 | -2.18746 | 270 ft | 13 kts | 263° |
| 2026-05-09 19:59 | 49.20698 | -2.18895 | 271 ft | 15 kts | 265° |
| 2026-05-09 19:59 | 49.20680 | -2.19063 | 271 ft | 16 kts | 262° |
| 2026-05-09 19:59 | 49.20678 | -2.19220 | 274 ft | 13 kts | 287° |
| 2026-05-09 19:59 | 49.20699 | -2.19328 | 276 ft | 7 kts | 285° |
| 2026-05-09 20:00 | 49.20703 | -2.19446 | 276 ft | 15 kts | 256° |
| 2026-05-09 20:00 | 49.20682 | -2.19600 | 274 ft | 12 kts | 245° |
| 2026-05-09 20:00 | 49.20627 | -2.19676 | 272 ft | 9 kts | 212° |
| 2026-05-09 20:00 | 49.20607 | -2.19744 | 271 ft | 5 kts | 263° |
| 2026-05-09 20:01 | 49.20603 | -2.19790 | 270 ft | 4 kts | 261° |
| 2026-05-09 20:01 | 49.20590 | -2.19809 | 270 ft | 1 kts | 177° |
| 2026-05-09 20:01 | 49.20570 | -2.19806 | 270 ft | 4 kts | 172° |
| 2026-05-09 20:01 | 49.20550 | -2.19801 | 270 ft | 0 kts | 173° |
| 2026-05-09 20:02 | 49.20548 | -2.19801 | 270 ft | 0 kts | 173° |